Time;durP1;ratioP1;P1;durP2;ratioP2;P2;SDS_P1;SDS_P2;PMS_P1;PMS_P2;Temp;Humidity;BMP_temperature;BMP_pressure;BME280_temperature;BME280_humidity;BME280_pressure;Samples;Min_cycle;Max_cycle;Signal;HPM_P1;HPM_P2
2024/01/17 00:01:03;;;;;;;8.30;6.10;;;20.50;46.50;;;;;;5113754;28;20036;-79
2024/01/17 00:03:29;;;;;;;6.63;5.20;;;20.60;46.40;;;;;;5113662;28;20038;-75
2024/01/17 00:05:55;;;;;;;11.45;6.63;;;20.60;46.40;;;;;;5094356;28;20399;-79
2024/01/17 00:08:21;;;;;;;11.15;6.63;;;20.70;46.40;;;;;;5113745;28;20059;-77
2024/01/17 00:10:47;;;;;;;9.02;5.93;;;20.60;46.30;;;;;;5113513;28;20088;-79
2024/01/17 00:13:13;;;;;;;12.80;7.68;;;20.50;46.30;;;;;;5113350;28;20044;-79
2024/01/17 00:15:39;;;;;;;16.63;8.77;;;20.50;46.10;;;;;;5111998;28;20083;-78
2024/01/17 00:18:06;;;;;;;14.40;8.23;;;20.50;46.20;;;;;;5111697;28;20146;-78
2024/01/17 00:20:32;;;;;;;13.25;7.90;;;20.40;46.10;;;;;;5113823;28;20126;-79
2024/01/17 00:22:58;;;;;;;14.35;9.35;;;20.50;46.30;;;;;;5113088;28;20388;-78
2024/01/17 00:25:25;;;;;;;13.23;8.65;;;20.50;46.30;;;;;;5112187;28;20180;-78
2024/01/17 00:27:51;;;;;;;11.85;8.10;;;20.40;46.30;;;;;;5112957;28;20518;-79
2024/01/17 00:30:17;;;;;;;14.70;8.07;;;20.40;46.40;;;;;;5076831;28;20043;-78
2024/01/17 00:32:43;;;;;;;19.55;9.25;;;20.40;46.50;;;;;;5111436;28;20110;-79
2024/01/17 00:35:10;;;;;;;10.57;5.95;;;20.30;46.60;;;;;;5112974;28;20036;-78
2024/01/17 00:37:37;;;;;;;12.95;7.60;;;20.40;46.60;;;;;;5113025;28;20028;-79
2024/01/17 00:40:04;;;;;;;11.48;7.05;;;20.40;46.60;;;;;;5112872;28;20429;-78
2024/01/17 00:42:30;;;;;;;9.93;6.55;;;20.30;46.70;;;;;;5112695;28;20040;-77
2024/01/17 00:44:56;;;;;;;11.73;7.88;;;20.30;46.80;;;;;;5109393;28;20466;-79
2024/01/17 00:47:22;;;;;;;13.40;8.75;;;20.30;46.90;;;;;;5112828;28;20121;-77
2024/01/17 00:49:48;;;;;;;13.57;8.02;;;20.30;46.90;;;;;;5112773;28;20107;-78
2024/01/17 00:52:14;;;;;;;15.18;8.88;;;20.20;46.70;;;;;;5112976;28;20088;-78
2024/01/17 00:54:40;;;;;;;12.32;8.85;;;20.20;46.60;;;;;;5112644;28;20031;-79
2024/01/17 00:57:07;;;;;;;13.98;8.73;;;20.20;46.50;;;;;;5112410;28;20091;-79
2024/01/17 00:59:33;;;;;;;14.57;9.13;;;20.30;46.60;;;;;;5112448;28;20027;-78
2024/01/17 01:02:01;;;;;;;11.30;7.97;;;20.30;46.50;;;;;;5111973;28;20104;-79
2024/01/17 01:04:28;;;;;;;13.27;8.07;;;20.30;46.40;;;;;;5112421;28;20057;-79
2024/01/17 01:06:54;;;;;;;18.38;8.77;;;20.40;46.30;;;;;;5112062;28;20114;-77
2024/01/17 01:09:20;;;;;;;16.98;8.45;;;20.30;46.30;;;;;;5112560;28;20118;-78
2024/01/17 01:11:46;;;;;;;13.70;7.85;;;20.40;46.20;;;;;;5112345;28;20449;-78
2024/01/17 01:14:13;;;;;;;11.10;7.30;;;20.30;46.10;;;;;;5112362;28;20035;-78
2024/01/17 01:16:39;;;;;;;13.02;7.45;;;20.40;46.10;;;;;;5112159;28;20122;-79
2024/01/17 01:19:05;;;;;;;12.18;7.97;;;20.40;46.00;;;;;;5112249;28;20467;-78
2024/01/17 01:21:31;;;;;;;12.27;7.78;;;20.40;45.90;;;;;;5112169;28;20046;-79
2024/01/17 01:23:57;;;;;;;13.10;7.47;;;20.40;45.90;;;;;;5111906;28;20072;-78
2024/01/17 01:26:23;;;;;;;8.48;5.68;;;20.40;45.90;;;;;;5110792;28;20034;-78
2024/01/17 01:28:49;;;;;;;11.52;5.70;;;20.40;46.00;;;;;;5111872;28;20062;-79
2024/01/17 01:31:15;;;;;;;10.63;6.22;;;20.40;46.00;;;;;;5112133;28;20084;-78
2024/01/17 01:33:42;;;;;;;7.95;5.40;;;20.40;46.10;;;;;;5111840;28;20099;-78
2024/01/17 01:36:08;;;;;;;8.80;5.25;;;20.20;46.10;;;;;;5111643;28;20530;-77
2024/01/17 01:38:34;;;;;;;6.80;4.20;;;20.20;46.20;;;;;;5092363;28;20051;-78
2024/01/17 01:41:00;;;;;;;7.55;5.40;;;20.20;46.30;;;;;;5111878;28;20044;-78
2024/01/17 01:43:26;;;;;;;12.43;6.53;;;20.20;46.30;;;;;;5111562;28;20043;-78
2024/01/17 01:46:04;;;;;;;13.23;7.15;;;20.20;46.40;;;;;;5111717;28;20032;-78
2024/01/17 01:48:31;;;;;;;9.82;7.05;;;20.10;46.40;;;;;;5111710;28;20032;-78
2024/01/17 01:50:58;;;;;;;13.23;7.20;;;20.20;46.40;;;;;;5111681;28;20038;-79
2024/01/17 01:53:25;;;;;;;12.50;7.22;;;20.20;46.50;;;;;;5111948;28;20036;-78
2024/01/17 01:55:53;;;;;;;14.27;7.68;;;20.10;46.50;;;;;;5111548;28;20062;-78
2024/01/17 01:58:25;;;;;;;10.40;7.15;;;20.10;46.60;;;;;;5111437;28;20104;-79
2024/01/17 02:00:54;;;;;;;11.07;6.63;;;20.10;46.50;;;;;;5091619;28;20070;-78
2024/01/17 02:03:21;;;;;;;11.10;6.88;;;20.20;46.40;;;;;;5111242;28;20050;-79
2024/01/17 02:05:48;;;;;;;13.88;6.65;;;20.20;46.30;;;;;;5111170;28;20118;-78
2024/01/17 02:08:15;;;;;;;13.57;7.25;;;20.10;46.20;;;;;;5074858;28;20047;-77
2024/01/17 02:10:41;;;;;;;12.75;7.38;;;20.20;46.20;;;;;;5075094;28;20463;-79
2024/01/17 02:13:08;;;;;;;13.73;7.95;;;20.20;46.10;;;;;;5111114;28;20115;-78
2024/01/17 02:15:34;;;;;;;14.80;7.55;;;20.20;46.00;;;;;;5092241;28;20487;-79
2024/01/17 02:18:00;;;;;;;10.50;7.00;;;20.20;45.90;;;;;;5091507;28;20048;-77
2024/01/17 02:20:26;;;;;;;10.45;6.53;;;20.20;45.90;;;;;;5111223;28;20039;-78
2024/01/17 02:22:52;;;;;;;13.23;7.18;;;20.20;45.80;;;;;;5109429;28;20390;-79
2024/01/17 02:25:19;;;;;;;12.73;7.20;;;20.30;45.80;;;;;;5111149;28;20022;-78
2024/01/17 02:27:45;;;;;;;9.73;6.45;;;20.20;45.60;;;;;;5111052;28;20104;-78
2024/01/17 02:30:14;;;;;;;11.30;6.45;;;20.20;45.60;;;;;;5111294;28;20032;-78
2024/01/17 02:32:41;;;;;;;10.27;5.80;;;20.10;45.70;;;;;;5110989;28;20123;-78
2024/01/17 02:35:08;;;;;;;15.93;5.95;;;20.10;45.70;;;;;;5111127;28;20467;-76
2024/01/17 02:37:34;;;;;;;12.25;5.78;;;20.20;45.80;;;;;;5111028;28;20038;-79
2024/01/17 02:40:00;;;;;;;10.93;6.50;;;20.10;45.90;;;;;;5111350;28;20437;-78
2024/01/17 02:42:26;;;;;;;9.65;6.35;;;20.00;45.90;;;;;;5106224;28;20046;-79
2024/01/17 02:44:52;;;;;;;11.00;6.63;;;20.10;46.00;;;;;;5111151;28;20387;-78
2024/01/17 02:47:19;;;;;;;10.65;6.95;;;20.00;46.00;;;;;;5109651;28;20480;-78
2024/01/17 02:49:45;;;;;;;11.75;6.93;;;20.00;46.10;;;;;;5111311;28;20039;-77
2024/01/17 02:52:11;;;;;;;13.18;7.28;;;20.10;46.20;;;;;;5111351;28;20067;-78
2024/01/17 02:54:37;;;;;;;11.88;7.40;;;20.00;46.20;;;;;;5111084;28;20028;-78
2024/01/17 02:57:04;;;;;;;10.57;6.22;;;20.00;46.20;;;;;;5109703;28;20035;-78
2024/01/17 02:59:30;;;;;;;11.18;6.38;;;20.00;46.20;;;;;;5111030;28;20040;-78
2024/01/17 03:01:58;;;;;;;9.27;6.35;;;20.00;46.30;;;;;;5111050;28;20395;-79
2024/01/17 03:04:24;;;;;;;12.07;6.43;;;20.10;46.20;;;;;;5111136;28;20043;-79
2024/01/17 03:06:51;;;;;;;10.63;6.43;;;19.90;46.00;;;;;;5110535;28;20036;-78
2024/01/17 03:09:17;;;;;;;7.82;5.97;;;20.00;46.00;;;;;;5110949;28;20020;-78
2024/01/17 03:11:43;;;;;;;6.53;4.95;;;20.10;46.00;;;;;;5111017;28;20028;-77
2024/01/17 03:14:09;;;;;;;6.97;4.20;;;20.10;45.90;;;;;;5110981;28;20054;-77
2024/01/17 03:16:36;;;;;;;6.53;4.20;;;20.10;45.80;;;;;;5110739;28;20089;-78
2024/01/17 03:19:02;;;;;;;10.75;4.80;;;20.10;45.70;;;;;;5109504;28;20047;-79
2024/01/17 03:21:28;;;;;;;7.65;5.00;;;20.20;45.60;;;;;;5110583;28;20416;-78
2024/01/17 03:23:55;;;;;;;7.82;5.10;;;20.00;45.50;;;;;;5111657;28;20030;-78
2024/01/17 03:26:22;;;;;;;7.07;5.07;;;20.10;45.50;;;;;;5114665;27;20039;-79
2024/01/17 03:28:48;;;;;;;9.55;6.38;;;20.10;45.50;;;;;;5114063;28;20074;-76
2024/01/17 03:31:14;;;;;;;13.55;7.35;;;20.00;45.30;;;;;;5114165;28;20035;-78
2024/01/17 03:33:40;;;;;;;11.68;7.20;;;20.10;45.30;;;;;;5113992;28;20115;-77
2024/01/17 03:36:07;;;;;;;11.10;6.53;;;20.10;45.40;;;;;;5114465;28;20042;-78
2024/01/17 03:38:33;;;;;;;14.43;7.22;;;20.10;45.40;;;;;;5114091;28;20046;-78
2024/01/17 03:41:00;;;;;;;10.93;7.18;;;20.00;45.30;;;;;;5114093;28;20041;-78
2024/01/17 03:43:27;;;;;;;9.63;6.78;;;20.10;45.50;;;;;;5113831;28;20040;-78
2024/01/17 03:45:57;;;;;;;11.63;7.13;;;20.00;45.40;;;;;;5114024;28;20062;-79
2024/01/17 03:48:23;;;;;;;11.98;6.95;;;19.90;45.50;;;;;;5113924;27;20036;-79
2024/01/17 03:50:50;;;;;;;7.78;5.13;;;20.00;45.60;;;;;;5114003;28;20057;-78
2024/01/17 03:53:16;;;;;;;8.38;5.15;;;20.00;45.60;;;;;;5114090;28;20036;-78
2024/01/17 03:55:42;;;;;;;8.10;5.38;;;20.00;45.70;;;;;;5113738;27;20126;-79
2024/01/17 03:58:08;;;;;;;7.97;5.10;;;19.90;45.70;;;;;;5113653;28;20038;-79
2024/01/17 04:00:34;;;;;;;12.55;6.20;;;19.90;45.80;;;;;;5114063;28;20451;-78
2024/01/17 04:03:01;;;;;;;11.23;6.35;;;19.90;45.80;;;;;;5113683;28;20086;-79
2024/01/17 04:05:27;;;;;;;10.23;6.20;;;20.00;45.80;;;;;;5113660;28;20053;-78
2024/01/17 04:07:53;;;;;;;8.32;5.78;;;20.00;45.90;;;;;;5112955;28;20483;-75
2024/01/17 04:10:19;;;;;;;7.85;5.32;;;20.00;45.80;;;;;;5113428;28;20043;-79
2024/01/17 04:12:45;;;;;;;9.85;5.75;;;20.00;45.70;;;;;;5113409;28;20118;-79
2024/01/17 04:15:12;;;;;;;12.73;5.93;;;20.10;45.60;;;;;;5113510;28;20032;-79
2024/01/17 04:17:38;;;;;;;14.05;6.35;;;20.10;45.60;;;;;;5113174;28;20141;-79
2024/01/17 04:20:05;;;;;;;9.10;5.47;;;20.00;45.40;;;;;;5113495;28;20118;-78
2024/01/17 04:22:31;;;;;;;12.10;6.22;;;20.00;45.30;;;;;;5113373;28;20088;-79
2024/01/17 04:24:58;;;;;;;10.60;6.75;;;20.10;45.30;;;;;;5113226;28;20585;-77
2024/01/17 04:27:24;;;;;;;11.05;7.43;;;20.10;45.30;;;;;;5113001;28;20032;-79
2024/01/17 04:29:50;;;;;;;11.95;7.63;;;20.10;45.30;;;;;;5113258;28;20076;-78
2024/01/17 04:32:16;;;;;;;10.65;6.85;;;20.10;45.30;;;;;;5093649;28;20548;-79
2024/01/17 04:34:42;;;;;;;10.68;7.07;;;20.10;45.20;;;;;;5112855;28;20364;-78
2024/01/17 04:37:08;;;;;;;12.15;7.38;;;20.00;45.10;;;;;;5096497;28;20035;-78
2024/01/17 04:39:34;;;;;;;12.73;7.75;;;20.10;45.10;;;;;;5092501;28;20051;-78
2024/01/17 04:42:01;;;;;;;15.02;7.63;;;20.10;45.10;;;;;;5091173;28;20047;-78
2024/01/17 04:44:30;;;;;;;12.30;8.07;;;20.10;45.10;;;;;;5073361;28;20403;-79
2024/01/17 04:46:57;;;;;;;11.73;8.15;;;20.00;45.10;;;;;;5095481;28;20032;-79
2024/01/17 04:49:27;;;;;;;16.95;8.57;;;20.00;45.20;;;;;;5092253;28;20032;-78
2024/01/17 04:51:54;;;;;;;15.57;9.38;;;19.90;45.20;;;;;;5092669;28;20032;-79
2024/01/17 04:54:22;;;;;;;14.52;9.05;;;19.70;45.30;;;;;;5092305;28;20073;-75
2024/01/17 04:56:49;;;;;;;19.67;9.27;;;20.00;45.30;;;;;;5092200;28;20067;-78
2024/01/17 04:59:15;;;;;;;17.10;9.63;;;19.90;45.50;;;;;;5091832;28;20032;-75
2024/01/17 05:01:42;;;;;;;16.52;9.63;;;20.00;45.50;;;;;;5092327;28;20047;-78
2024/01/17 05:04:08;;;;;;;14.35;8.85;;;20.00;45.60;;;;;;5092117;28;20063;-77
2024/01/17 05:06:34;;;;;;;19.63;9.60;;;19.90;45.60;;;;;;5092222;28;20040;-77
2024/01/17 05:09:03;;;;;;;12.38;8.00;;;19.80;45.50;;;;;;5091909;28;20341;-76
2024/01/17 05:11:29;;;;;;;14.68;8.88;;;19.80;45.60;;;;;;5092009;28;20036;-79
2024/01/17 05:13:55;;;;;;;15.10;9.85;;;19.70;45.60;;;;;;5092042;28;20059;-78
2024/01/17 05:16:22;;;;;;;13.93;8.45;;;19.70;45.80;;;;;;5091805;28;20044;-78
2024/01/17 05:18:48;;;;;;;10.93;7.07;;;19.80;45.70;;;;;;5091657;28;20052;-79
2024/01/17 05:21:14;;;;;;;13.18;8.15;;;19.80;45.60;;;;;;5091901;28;20074;-78
2024/01/17 05:23:40;;;;;;;18.35;9.07;;;19.80;45.50;;;;;;5091641;28;20448;-75
2024/01/17 05:26:07;;;;;;;16.30;9.45;;;19.80;45.40;;;;;;5091663;28;20481;-79
2024/01/17 05:28:33;;;;;;;21.52;11.02;;;20.00;45.30;;;;;;5091676;28;20063;-79
2024/01/17 05:30:59;;;;;;;19.05;11.52;;;19.80;45.20;;;;;;5091768;28;20092;-78
2024/01/17 05:33:25;;;;;;;19.38;11.82;;;19.80;45.20;;;;;;5091677;28;20058;-78
2024/01/17 05:35:51;;;;;;;15.82;9.80;;;20.00;45.10;;;;;;5091512;28;20044;-77
2024/01/17 05:38:17;;;;;;;16.58;9.13;;;19.90;45.10;;;;;;5091445;28;20040;-79
2024/01/17 05:40:43;;;;;;;15.02;9.30;;;20.00;45.00;;;;;;5091729;28;20387;-78
2024/01/17 05:43:10;;;;;;;15.80;9.80;;;20.00;44.90;;;;;;5091480;28;20043;-78
2024/01/17 05:45:36;;;;;;;18.60;9.70;;;20.00;44.90;;;;;;5091604;28;20031;-77
2024/01/17 05:48:02;;;;;;;14.45;8.75;;;20.00;44.90;;;;;;5090999;28;20662;-79
2024/01/17 05:50:29;;;;;;;17.02;9.48;;;19.90;45.00;;;;;;5091319;28;20495;-77
2024/01/17 05:52:55;;;;;;;20.88;11.70;;;19.90;45.00;;;;;;5090089;28;20130;-76
2024/01/17 05:55:21;;;;;;;18.73;11.35;;;19.90;45.10;;;;;;5091255;28;20115;-79
2024/01/17 05:57:47;;;;;;;18.20;10.70;;;19.80;45.00;;;;;;5091192;28;20024;-78
2024/01/17 06:00:14;;;;;;;18.00;9.48;;;19.80;45.20;;;;;;5094429;28;20098;-79
2024/01/17 06:02:42;;;;;;;11.55;7.80;;;19.80;45.20;;;;;;5111429;28;20047;-78
2024/01/17 06:05:09;;;;;;;10.48;7.65;;;19.80;45.20;;;;;;5111419;28;20028;-78
2024/01/17 06:07:35;;;;;;;11.48;6.95;;;19.90;45.40;;;;;;5111784;28;20475;-76
2024/01/17 06:10:02;;;;;;;11.70;7.35;;;19.80;45.30;;;;;;5110998;28;20089;-79
2024/01/17 06:12:29;;;;;;;13.40;7.00;;;19.90;45.50;;;;;;5110326;28;20067;-79
2024/01/17 06:14:55;;;;;;;10.25;6.47;;;19.80;45.40;;;;;;5111323;28;20502;-79
2024/01/17 06:17:21;;;;;;;8.45;5.63;;;19.80;45.40;;;;;;5111420;28;20058;-77
2024/01/17 06:19:47;;;;;;;8.75;5.72;;;19.80;45.40;;;;;;5111207;28;20024;-78
2024/01/17 06:22:18;;;;;;;10.50;6.13;;;19.80;45.20;;;;;;5110084;28;20032;-79
2024/01/17 06:24:45;;;;;;;10.48;5.82;;;19.80;45.20;;;;;;5111098;28;20483;-78
2024/01/17 06:27:12;;;;;;;11.38;5.65;;;19.70;45.10;;;;;;5111113;28;20463;-78
2024/01/17 06:29:42;;;;;;;8.40;5.93;;;19.90;45.10;;;;;;5111294;28;20103;-78
2024/01/17 06:32:08;;;;;;;9.32;6.00;;;19.90;45.00;;;;;;5111209;28;20055;-78
2024/01/17 06:34:34;;;;;;;12.20;7.78;;;19.90;44.90;;;;;;5111232;28;20479;-79
2024/01/17 06:37:01;;;;;;;9.70;6.40;;;19.80;44.80;;;;;;5110298;28;20028;-78
2024/01/17 06:39:27;;;;;;;12.85;7.20;;;20.00;44.80;;;;;;5094112;28;20515;-78
2024/01/17 06:41:53;;;;;;;12.48;6.53;;;19.90;44.70;;;;;;5090885;28;20098;-77
2024/01/17 06:44:20;;;;;;;13.65;7.38;;;19.90;44.70;;;;;;5071883;28;20087;-78
2024/01/17 06:46:46;;;;;;;12.57;7.47;;;19.90;44.60;;;;;;5090900;28;20077;-79
2024/01/17 06:49:13;;;;;;;11.18;7.25;;;19.90;44.60;;;;;;5089090;28;20028;-77
2024/01/17 06:51:39;;;;;;;11.13;7.05;;;20.00;44.60;;;;;;5090938;28;20031;-77
2024/01/17 06:54:05;;;;;;;11.85;6.95;;;20.00;44.60;;;;;;5090648;28;20081;-79
2024/01/17 06:56:34;;;;;;;9.00;6.47;;;20.00;44.60;;;;;;5090839;28;20043;-79
2024/01/17 06:59:00;;;;;;;12.90;6.55;;;19.80;44.60;;;;;;5091370;28;20111;-78
2024/01/17 07:01:27;;;;;;;11.18;7.00;;;19.80;44.70;;;;;;5094402;28;20039;-79
2024/01/17 07:03:53;;;;;;;11.55;6.75;;;19.90;44.90;;;;;;5094397;28;20847;-78
2024/01/17 07:06:19;;;;;;;10.85;6.35;;;19.80;44.80;;;;;;5075132;28;20043;-79
2024/01/17 07:08:45;;;;;;;9.60;6.03;;;19.80;44.90;;;;;;5094334;28;20028;-79
2024/01/17 07:11:11;;;;;;;12.73;6.70;;;19.80;44.90;;;;;;5094420;28;20440;-79
2024/01/17 07:13:41;;;;;;;9.60;6.55;;;19.80;44.90;;;;;;5094281;28;20036;-79
2024/01/17 07:16:07;;;;;;;10.18;6.43;;;19.80;45.00;;;;;;5094103;28;20056;-79
2024/01/17 07:18:34;;;;;;;12.40;6.95;;;19.80;45.00;;;;;;5094312;28;20056;-78
2024/01/17 07:21:07;;;;;;;11.50;7.25;;;19.70;45.00;;;;;;5094321;28;20033;-78
2024/01/17 07:23:37;;;;;;;14.52;7.72;;;19.90;45.20;;;;;;5094161;28;20129;-79
2024/01/17 07:26:04;;;;;;;15.95;8.75;;;19.60;44.90;;;;;;5094257;28;20031;-78
2024/01/17 07:28:30;;;;;;;12.60;8.45;;;19.70;45.10;;;;;;5093850;28;20028;-79
2024/01/17 07:30:56;;;;;;;15.40;10.60;;;19.70;45.20;;;;;;5075639;28;20492;-79
2024/01/17 07:33:22;;;;;;;18.27;11.30;;;19.80;45.20;;;;;;5094177;28;20020;-79
2024/01/17 07:35:48;;;;;;;22.77;12.30;;;19.70;45.20;;;;;;5093843;28;20039;-79
2024/01/17 07:38:14;;;;;;;21.58;12.73;;;19.70;45.20;;;;;;5093793;28;20063;-78
2024/01/17 07:40:41;;;;;;;26.05;15.38;;;19.70;45.30;;;;;;5093892;28;20044;-77
2024/01/17 07:43:08;;;;;;;24.55;14.98;;;19.80;45.30;;;;;;5093710;28;20043;-79
2024/01/17 07:45:34;;;;;;;24.10;14.32;;;19.70;45.20;;;;;;5093717;28;20039;-78
2024/01/17 07:48:00;;;;;;;19.20;13.98;;;19.70;45.10;;;;;;5093593;28;20036;-78
2024/01/17 07:50:26;;;;;;;20.90;12.50;;;19.80;44.90;;;;;;5093691;28;20032;-76
2024/01/17 07:52:53;;;;;;;26.63;14.52;;;19.90;44.90;;;;;;5092375;28;20077;-78
2024/01/17 07:55:19;;;;;;;27.08;14.75;;;19.90;44.80;;;;;;5092265;28;20322;-79
2024/01/17 07:57:45;;;;;;;25.02;15.80;;;19.80;44.60;;;;;;5104387;28;20039;-78
2024/01/17 08:00:11;;;;;;;27.98;15.48;;;19.90;44.60;;;;;;5112453;28;20027;-79
2024/01/17 08:02:40;;;;;;;24.50;14.75;;;19.90;44.60;;;;;;5114004;27;20032;-76
2024/01/17 08:05:07;;;;;;;27.55;14.63;;;20.00;44.50;;;;;;5113967;28;20115;-77
2024/01/17 08:07:33;;;;;;;26.15;15.10;;;20.00;44.40;;;;;;5112547;28;20089;-78
2024/01/17 08:09:59;;;;;;;27.23;14.90;;;20.00;44.30;;;;;;5113252;28;20039;-78
2024/01/17 08:12:25;;;;;;;22.88;14.60;;;20.10;44.30;;;;;;5113548;28;20039;-79
2024/01/17 08:14:51;;;;;;;35.88;17.33;;;20.10;44.20;;;;;;5113693;28;20028;-75
2024/01/17 08:17:17;;;;;;;22.77;14.88;;;20.10;44.10;;;;;;5112075;28;20104;-79
2024/01/17 08:19:43;;;;;;;20.25;12.45;;;20.20;44.10;;;;;;5113266;28;20479;-78
2024/01/17 08:22:10;;;;;;;23.77;13.98;;;20.10;44.00;;;;;;5113331;28;20097;-79
2024/01/17 08:24:36;;;;;;;26.95;13.55;;;20.30;44.10;;;;;;5113130;28;20023;-78
2024/01/17 08:27:03;;;;;;;22.20;12.57;;;20.30;44.00;;;;;;5113067;28;20044;-79
2024/01/17 08:29:29;;;;;;;23.60;11.98;;;20.20;43.80;;;;;;5113073;28;20053;-79
2024/01/17 08:31:55;;;;;;;14.05;9.65;;;20.20;43.70;;;;;;5113124;28;20038;-79
2024/01/17 08:34:22;;;;;;;16.92;10.43;;;20.20;43.70;;;;;;5113243;28;20074;-77
2024/01/17 08:36:48;;;;;;;18.27;10.18;;;20.30;43.80;;;;;;5095200;28;20043;-79
2024/01/17 08:39:17;;;;;;;15.15;9.90;;;20.30;43.70;;;;;;5094152;28;20391;-79
2024/01/17 08:41:45;;;;;;;14.32;9.85;;;20.30;43.60;;;;;;5092568;28;20035;-79
2024/01/17 08:44:15;;;;;;;16.42;9.85;;;20.40;43.60;;;;;;5095262;28;20531;-79
2024/01/17 08:46:45;;;;;;;16.52;10.38;;;20.30;43.50;;;;;;5092814;28;20040;-78
2024/01/17 08:49:11;;;;;;;12.93;9.40;;;20.30;43.50;;;;;;5091301;28;20027;-78
2024/01/17 08:51:38;;;;;;;17.70;10.32;;;20.40;43.50;;;;;;5092393;28;20040;-78
2024/01/17 08:54:04;;;;;;;13.15;9.63;;;20.40;43.50;;;;;;5092409;28;20040;-78
2024/01/17 08:56:31;;;;;;;16.75;9.57;;;20.40;43.40;;;;;;5092616;28;20030;-79
2024/01/17 08:58:58;;;;;;;18.30;9.98;;;20.30;43.40;;;;;;5073093;28;20052;-78
2024/01/17 09:01:24;;;;;;;17.33;9.23;;;20.40;43.40;;;;;;5092344;28;20419;-79
2024/01/17 09:03:51;;;;;;;16.80;9.30;;;20.40;43.50;;;;;;5092261;28;20048;-79
2024/01/17 09:06:17;;;;;;;14.23;8.98;;;20.40;43.50;;;;;;5092074;28;20046;-79
2024/01/17 09:08:43;;;;;;;16.83;9.88;;;20.20;43.40;;;;;;5091991;28;20541;-79
2024/01/17 09:11:10;;;;;;;16.42;9.25;;;20.20;43.50;;;;;;5092126;28;20624;-78
2024/01/17 09:13:36;;;;;;;20.00;9.10;;;20.30;43.60;;;;;;5090789;28;20090;-78
2024/01/17 09:16:02;;;;;;;13.25;7.95;;;20.30;43.70;;;;;;5072961;28;20115;-78
2024/01/17 09:18:28;;;;;;;13.77;9.00;;;20.20;43.60;;;;;;5092058;28;20040;-78
2024/01/17 09:20:55;;;;;;;11.45;7.55;;;20.20;43.70;;;;;;5091774;28;20028;-79
2024/01/17 09:23:21;;;;;;;16.52;9.02;;;20.20;43.80;;;;;;5091424;28;20044;-77
2024/01/17 09:25:47;;;;;;;14.35;8.32;;;20.20;43.80;;;;;;5091677;28;20044;-79
2024/01/17 09:28:13;;;;;;;16.95;8.73;;;20.20;43.80;;;;;;5091946;28;20124;-77
2024/01/17 09:30:39;;;;;;;16.92;8.57;;;20.30;43.90;;;;;;5091426;28;20035;-79
2024/01/17 09:33:05;;;;;;;15.50;8.82;;;20.20;43.70;;;;;;5091686;28;20070;-78
2024/01/17 09:35:34;;;;;;;14.70;8.43;;;20.30;43.80;;;;;;5091651;28;20502;-77
2024/01/17 09:38:06;;;;;;;15.32;8.52;;;20.30;43.80;;;;;;5091752;28;20036;-78
2024/01/17 09:40:33;;;;;;;15.23;8.77;;;20.20;43.60;;;;;;5072083;28;20162;-80
2024/01/17 09:42:59;;;;;;;13.82;8.15;;;20.30;43.80;;;;;;5090304;28;20044;-79
2024/01/17 09:45:29;;;;;;;13.35;8.25;;;20.30;43.80;;;;;;5091497;28;20565;-79
2024/01/17 09:47:56;;;;;;;14.02;7.57;;;20.30;43.70;;;;;;5091538;28;20032;-78
2024/01/17 09:50:22;;;;;;;13.68;8.38;;;20.30;43.70;;;;;;5091376;28;20036;-78
2024/01/17 09:52:49;;;;;;;15.02;8.90;;;20.30;43.60;;;;;;5091406;28;20070;-77
2024/01/17 09:55:21;;;;;;;15.50;8.15;;;20.30;43.70;;;;;;5091704;28;20047;-78
2024/01/17 09:57:57;;;;;;;15.55;8.48;;;20.30;43.70;;;;;;5091317;28;20035;-76
2024/01/17 10:00:25;;;;;;;14.18;7.82;;;20.20;43.70;;;;;;5091300;28;20479;-79
2024/01/17 10:02:54;;;;;;;13.15;8.65;;;20.30;43.90;;;;;;5091111;28;20482;-78
2024/01/17 10:05:21;;;;;;;11.38;7.88;;;20.30;43.90;;;;;;5091914;28;20031;-76
2024/01/17 10:07:48;;;;;;;11.32;8.25;;;20.40;44.00;;;;;;5110852;28;20482;-78
2024/01/17 10:10:14;;;;;;;15.05;7.65;;;20.20;44.00;;;;;;5110434;28;20039;-78
2024/01/17 10:12:42;;;;;;;12.30;7.68;;;20.30;44.10;;;;;;5111619;28;20043;-79
2024/01/17 10:15:13;;;;;;;12.75;8.45;;;20.20;44.10;;;;;;5111628;28;20032;-78
2024/01/17 10:17:39;;;;;;;13.55;8.05;;;20.00;44.10;;;;;;5111592;28;20123;-78
2024/01/17 10:20:08;;;;;;;11.25;7.28;;;20.20;44.20;;;;;;5111504;28;20046;-79
2024/01/17 10:22:34;;;;;;;12.52;7.90;;;20.20;44.30;;;;;;5111220;28;20395;-79
2024/01/17 10:25:01;;;;;;;15.23;8.25;;;20.20;44.30;;;;;;5111568;28;20110;-79
2024/01/17 10:27:28;;;;;;;16.27;8.48;;;20.30;44.30;;;;;;5110220;28;20071;-77
2024/01/17 10:29:55;;;;;;;14.68;8.10;;;20.20;44.10;;;;;;5111223;28;20104;-79
2024/01/17 10:32:21;;;;;;;13.63;7.82;;;20.30;44.20;;;;;;5102481;28;20044;-79
2024/01/17 10:34:48;;;;;;;13.75;8.20;;;20.30;44.30;;;;;;5094921;28;20159;-79
2024/01/17 10:37:16;;;;;;;15.45;9.30;;;20.40;44.20;;;;;;5095022;28;20032;-79
2024/01/17 10:39:43;;;;;;;11.68;7.70;;;20.30;44.20;;;;;;5097712;28;20036;-79
2024/01/17 10:42:20;;;;;;;12.73;7.85;;;20.30;44.10;;;;;;5094905;28;20032;-79
2024/01/17 10:44:46;;;;;;;14.73;9.23;;;20.20;44.00;;;;;;5095234;28;20032;-79
2024/01/17 10:47:12;;;;;;;12.98;7.13;;;20.30;44.10;;;;;;5093533;28;20041;-79
2024/01/17 10:49:38;;;;;;;11.63;7.28;;;20.30;44.10;;;;;;5094365;28;20024;-75
2024/01/17 10:52:08;;;;;;;11.60;7.32;;;20.40;44.00;;;;;;5094890;28;20032;-79
2024/01/17 10:54:51;;;;;;;13.88;7.88;;;20.30;44.00;;;;;;5094588;28;20024;-79
2024/01/17 10:57:20;;;;;;;9.98;6.57;;;20.30;44.00;;;;;;5094657;28;20035;-79
2024/01/17 10:59:50;;;;;;;10.93;7.25;;;20.30;44.10;;;;;;5094455;28;20036;-78
2024/01/17 11:02:23;;;;;;;12.27;7.05;;;20.30;44.20;;;;;;5092255;28;20074;-78
2024/01/17 11:04:58;;;;;;;11.43;7.50;;;20.20;44.20;;;;;;5094474;28;20514;-78
2024/01/17 11:07:25;;;;;;;14.20;7.90;;;20.30;44.30;;;;;;5094710;28;20123;-79
2024/01/17 11:09:53;;;;;;;16.00;8.07;;;20.20;44.30;;;;;;5094389;28;20039;-79
2024/01/17 11:12:21;;;;;;;15.23;8.65;;;20.30;44.40;;;;;;5093329;28;20031;-79
2024/01/17 11:14:49;;;;;;;12.57;7.78;;;20.20;44.40;;;;;;5094333;28;20040;-79
2024/01/17 11:17:16;;;;;;;13.27;7.68;;;20.10;44.40;;;;;;5092842;28;20407;-78
2024/01/17 11:19:44;;;;;;;13.10;6.88;;;20.20;44.50;;;;;;5094249;28;20031;-79
2024/01/17 11:22:14;;;;;;;13.88;7.22;;;20.30;44.70;;;;;;5094025;28;20134;-78
2024/01/17 11:25:04;;;;;;;9.98;6.25;;;20.20;44.60;;;;;;5094499;28;20426;-78
2024/01/17 11:27:38;;;;;;;10.73;6.32;;;20.20;44.70;;;;;;5094141;28;20044;-79
2024/01/17 11:30:31;;;;;;;9.48;6.55;;;20.10;44.70;;;;;;5094059;28;20059;-79
2024/01/17 11:33:12;;;;;;;10.57;5.75;;;20.10;44.60;;;;;;5094004;28;20471;-78
2024/01/17 11:35:43;;;;;;;11.38;7.35;;;20.20;44.60;;;;;;5094134;28;20043;-79
2024/01/17 11:38:22;;;;;;;12.55;6.85;;;20.30;44.70;;;;;;5094521;28;20040;-78
2024/01/17 11:40:50;;;;;;;10.15;6.82;;;20.30;44.70;;;;;;5092542;28;20080;-78
2024/01/17 11:43:16;;;;;;;11.00;7.40;;;20.30;44.60;;;;;;5094074;28;20036;-79
2024/01/17 11:45:42;;;;;;;9.45;6.30;;;20.30;44.60;;;;;;5093165;28;20131;-77
2024/01/17 11:48:18;;;;;;;11.32;6.55;;;20.30;44.60;;;;;;5093949;28;20031;-79
2024/01/17 11:51:09;;;;;;;11.48;6.93;;;20.20;44.40;;;;;;5093280;28;20408;-78
2024/01/17 11:53:36;;;;;;;9.27;6.20;;;20.40;44.50;;;;;;5093823;28;20058;-77
2024/01/17 11:56:05;;;;;;;10.07;6.53;;;20.30;44.50;;;;;;5093725;28;20031;-78
2024/01/17 11:58:39;;;;;;;10.70;7.00;;;20.20;44.30;;;;;;5093651;28;20039;-76
2024/01/17 12:01:07;;;;;;;9.77;6.43;;;20.30;44.40;;;;;;5093753;28;20036;-78
2024/01/17 12:03:33;;;;;;;9.93;7.10;;;20.30;44.50;;;;;;5107949;28;20451;-78
2024/01/17 12:06:01;;;;;;;10.77;6.30;;;20.30;44.60;;;;;;5114279;28;20036;-78
2024/01/17 12:08:28;;;;;;;12.40;6.32;;;20.30;44.60;;;;;;5113764;27;20035;-78
2024/01/17 12:10:57;;;;;;;14.30;7.88;;;20.20;44.60;;;;;;5094372;28;20112;-78
2024/01/17 12:13:24;;;;;;;10.85;7.10;;;20.20;44.60;;;;;;5113736;28;20019;-78
2024/01/17 12:15:54;;;;;;;10.98;6.97;;;20.20;44.70;;;;;;5113329;28;20482;-78
2024/01/17 12:18:22;;;;;;;8.98;6.43;;;20.10;44.70;;;;;;5112318;28;20435;-78
2024/01/17 12:20:49;;;;;;;9.55;6.55;;;20.10;44.70;;;;;;5111899;28;20111;-78
2024/01/17 12:23:24;;;;;;;11.32;7.53;;;20.00;44.70;;;;;;5113570;28;20038;-77
2024/01/17 12:25:53;;;;;;;10.63;6.20;;;20.10;44.80;;;;;;5073585;28;20044;-79
2024/01/17 12:28:20;;;;;;;8.38;5.60;;;20.10;44.80;;;;;;5093283;28;20028;-77
2024/01/17 12:31:00;;;;;;;10.48;6.13;;;20.10;44.90;;;;;;5091388;28;20089;-79
2024/01/17 12:33:36;;;;;;;10.23;5.68;;;20.00;44.80;;;;;;5093037;28;20044;-79
2024/01/17 12:36:04;;;;;;;9.00;4.95;;;20.20;44.90;;;;;;5092898;28;20027;-78
2024/01/17 12:38:32;;;;;;;7.47;4.65;;;20.10;44.90;;;;;;5056966;28;20127;-79